Time;durP1;ratioP1;P1;durP2;ratioP2;P2;SDS_P1;SDS_P2;PMS_P1;PMS_P2;Temp;Humidity;BMP_temperature;BMP_pressure;BME280_temperature;BME280_humidity;BME280_pressure;Samples;Min_cycle;Max_cycle;Signal;HPM_P1;HPM_P2
2022/12/23 00:00:38;;;;;;;2.75;1.90;;;19.90;57.80;;;;;;5071647;28;20080;-63
2022/12/23 00:03:04;;;;;;;2.70;1.85;;;19.90;57.80;;;;;;5071732;28;20044;-63
2022/12/23 00:05:30;;;;;;;2.58;1.60;;;19.80;57.80;;;;;;5071331;28;20052;-63
2022/12/23 00:07:55;;;;;;;3.53;1.90;;;19.80;57.80;;;;;;5071067;28;20060;-63
2022/12/23 00:10:21;;;;;;;4.07;2.05;;;19.90;57.90;;;;;;5071531;28;20051;-63
2022/12/23 00:15:30;;;;;;;4.28;2.05;;;19.80;57.80;;;;;;5069821;28;20123;-63
2022/12/23 00:17:56;;;;;;;4.50;2.03;;;19.80;57.80;;;;;;5068413;28;20720;-63
2022/12/23 00:20:21;;;;;;;2.60;1.60;;;19.80;57.80;;;;;;5071290;28;20053;-63
2022/12/23 00:23:05;;;;;;;2.50;1.80;;;19.80;57.80;;;;;;5070536;28;20102;-63
2022/12/23 00:25:40;;;;;;;3.85;2.10;;;19.70;57.80;;;;;;5071732;28;20044;-63
2022/12/23 00:28:17;;;;;;;2.47;1.77;;;19.70;57.80;;;;;;5063759;28;20051;-63
2022/12/23 00:31:06;;;;;;;3.00;1.85;;;19.70;57.80;;;;;;5051355;28;20098;-63
2022/12/23 00:33:33;;;;;;;3.05;2.00;;;19.70;57.80;;;;;;5050538;28;20114;-63
2022/12/23 00:35:59;;;;;;;3.47;2.15;;;19.70;57.70;;;;;;5050596;28;20424;-63
2022/12/23 00:44:07;;;;;;;3.40;2.00;;;19.70;57.80;;;;;;5051651;28;20045;-63
2022/12/23 00:46:33;;;;;;;2.88;2.20;;;19.70;57.80;;;;;;5051134;28;20045;-63
2022/12/23 00:51:42;;;;;;;2.38;1.70;;;19.70;57.80;;;;;;5051339;28;20400;-63
2022/12/23 00:54:08;;;;;;;3.42;1.73;;;19.60;57.70;;;;;;5051436;28;20049;-63
2022/12/23 00:56:33;;;;;;;3.92;2.15;;;19.60;57.80;;;;;;5050903;28;20150;-63
2022/12/23 00:58:59;;;;;;;3.35;2.08;;;19.60;57.70;;;;;;5051527;28;20036;-63
2022/12/23 01:06:57;;;;;;;2.85;1.90;;;19.60;57.80;;;;;;5050830;28;20049;-63
2022/12/23 01:09:22;;;;;;;2.90;1.77;;;19.60;57.70;;;;;;5050515;28;20041;-63
2022/12/23 01:11:48;;;;;;;2.40;1.75;;;19.60;57.70;;;;;;5051456;28;20041;-63
2022/12/23 01:14:14;;;;;;;3.28;2.10;;;19.60;57.70;;;;;;5054559;28;20053;-63
2022/12/23 01:16:40;;;;;;;3.03;1.98;;;19.60;57.70;;;;;;5054256;28;20049;-63
2022/12/23 01:19:05;;;;;;;2.97;1.90;;;19.50;57.60;;;;;;5054839;28;20033;-63
2022/12/23 01:21:31;;;;;;;2.30;1.83;;;19.50;57.60;;;;;;5053367;28;20045;-63
2022/12/23 01:23:57;;;;;;;2.92;2.10;;;19.50;57.60;;;;;;5054124;28;20057;-63
2022/12/23 01:26:22;;;;;;;3.55;2.15;;;19.50;57.60;;;;;;5054296;28;20045;-63
2022/12/23 01:28:48;;;;;;;2.58;1.92;;;19.50;57.60;;;;;;5054512;28;20504;-63
2022/12/23 01:31:13;;;;;;;3.25;1.83;;;19.50;57.60;;;;;;5052617;28;20067;-63
2022/12/23 01:33:39;;;;;;;3.28;2.00;;;19.50;57.60;;;;;;5052041;28;20047;-63
2022/12/23 01:36:06;;;;;;;2.70;1.90;;;19.50;57.60;;;;;;5054712;28;20045;-63
2022/12/23 01:38:32;;;;;;;2.55;1.60;;;19.50;57.60;;;;;;5054020;28;20048;-62
2022/12/23 01:40:57;;;;;;;2.90;1.70;;;19.50;57.60;;;;;;5054397;28;20045;-62
2022/12/23 01:43:40;;;;;;;2.58;1.85;;;19.50;57.60;;;;;;5054255;28;20041;-63
2022/12/23 01:46:06;;;;;;;3.13;1.80;;;19.50;57.60;;;;;;5061898;28;20443;-63
2022/12/23 01:48:31;;;;;;;3.05;1.75;;;19.40;57.50;;;;;;5074282;28;20045;-63
2022/12/23 01:50:59;;;;;;;2.50;1.77;;;19.40;57.50;;;;;;5073239;28;20460;-63
2022/12/23 01:53:30;;;;;;;2.73;1.70;;;19.40;57.50;;;;;;5069798;28;20067;-63
2022/12/23 01:56:06;;;;;;;2.42;1.42;;;19.40;57.60;;;;;;5072928;28;20085;-63
2022/12/23 01:58:45;;;;;;;3.30;1.80;;;19.40;57.50;;;;;;5073536;28;20040;-63
2022/12/23 02:03:56;;;;;;;2.13;1.48;;;19.40;57.60;;;;;;5073058;28;20080;-63
2022/12/23 02:09:24;;;;;;;2.60;1.73;;;19.40;57.50;;;;;;5072664;28;20451;-63
2022/12/23 02:12:27;;;;;;;2.97;1.85;;;19.40;57.50;;;;;;5073804;28;20135;-63
2022/12/23 02:18:09;;;;;;;3.20;2.00;;;19.40;57.50;;;;;;5074115;28;20083;-63
2022/12/23 02:20:54;;;;;;;2.90;1.70;;;19.30;57.50;;;;;;5072202;28;20377;-63
2022/12/23 02:23:34;;;;;;;2.40;1.40;;;19.30;57.50;;;;;;5073179;28;20044;-64
2022/12/23 02:26:37;;;;;;;3.03;1.70;;;19.30;57.50;;;;;;5073433;28;20055;-63
2022/12/23 02:29:06;;;;;;;2.35;1.38;;;19.30;57.50;;;;;;5072008;28;20172;-63
2022/12/23 02:31:33;;;;;;;2.50;1.60;;;19.30;57.50;;;;;;5071629;28;20037;-63
2022/12/23 02:34:11;;;;;;;2.47;1.50;;;19.30;57.50;;;;;;5071366;28;20044;-62
2022/12/23 02:36:55;;;;;;;1.75;1.35;;;19.30;57.50;;;;;;5072113;28;20057;-63
2022/12/23 02:39:34;;;;;;;2.42;1.58;;;19.30;57.50;;;;;;5073016;28;20113;-63
2022/12/23 02:42:31;;;;;;;2.17;1.45;;;19.30;57.50;;;;;;5071595;28;20053;-63
2022/12/23 02:45:11;;;;;;;3.20;1.50;;;19.30;57.50;;;;;;5054588;28;20577;-63
2022/12/23 02:47:40;;;;;;;2.30;1.60;;;19.30;57.50;;;;;;5056785;28;20483;-63
2022/12/23 02:50:09;;;;;;;2.47;1.50;;;19.30;57.50;;;;;;5071009;28;20087;-63
2022/12/23 02:52:35;;;;;;;2.40;1.60;;;19.30;57.50;;;;;;5073143;28;20089;-63
2022/12/23 02:55:04;;;;;;;1.80;1.42;;;19.30;57.60;;;;;;5071540;28;20052;-63
2022/12/23 02:57:34;;;;;;;2.38;1.60;;;19.30;57.50;;;;;;5071492;28;20086;-62
2022/12/23 03:00:00;;;;;;;2.55;1.33;;;19.20;57.50;;;;;;5054923;28;20061;-63
2022/12/23 03:02:26;;;;;;;2.67;1.70;;;19.30;57.50;;;;;;5045460;28;20045;-63
2022/12/23 03:04:51;;;;;;;2.33;1.52;;;19.30;57.50;;;;;;5051886;28;20037;-63
2022/12/23 03:07:20;;;;;;;2.08;1.40;;;19.20;57.50;;;;;;5061342;28;20060;-63
2022/12/23 03:10:23;;;;;;;2.35;1.60;;;19.20;58.20;;;;;;5054198;28;20041;-63
2022/12/23 03:13:29;;;;;;;2.78;1.73;;;19.20;57.40;;;;;;5071050;28;20056;-63
2022/12/23 03:16:00;;;;;;;1.85;1.20;;;19.20;57.40;;;;;;5040593;28;20066;-63
2022/12/23 03:18:33;;;;;;;2.78;1.60;;;19.20;57.50;;;;;;5072451;28;20040;-63
2022/12/23 03:21:09;;;;;;;2.22;1.70;;;19.20;57.50;;;;;;5071321;28;20044;-63
2022/12/23 03:23:57;;;;;;;1.75;1.33;;;19.20;57.50;;;;;;5072384;28;20051;-63
2022/12/23 03:26:31;;;;;;;2.42;1.52;;;19.20;57.50;;;;;;5060562;28;20098;-63
2022/12/23 03:29:02;;;;;;;1.95;1.30;;;19.20;57.50;;;;;;5071429;28;20055;-63
2022/12/23 03:31:29;;;;;;;2.60;1.33;;;19.20;58.20;;;;;;5070127;28;20036;-63
2022/12/23 03:34:00;;;;;;;1.67;1.30;;;19.20;57.50;;;;;;5071352;28;20044;-62
2022/12/23 03:36:50;;;;;;;2.03;1.35;;;19.20;58.20;;;;;;5070900;28;20041;-62
2022/12/23 03:39:18;;;;;;;1.75;1.15;;;19.20;57.50;;;;;;5070451;28;20041;-63
2022/12/23 03:41:47;;;;;;;1.75;1.30;;;19.20;57.50;;;;;;5071369;28;20086;-63
2022/12/23 03:44:17;;;;;;;1.55;1.20;;;19.20;57.60;;;;;;5070014;28;20033;-63
2022/12/23 03:46:54;;;;;;;1.75;1.30;;;19.20;57.60;;;;;;5054396;28;20102;-62
2022/12/23 03:49:23;;;;;;;1.95;1.30;;;19.20;57.50;;;;;;5070914;28;20052;-63
2022/12/23 03:52:12;;;;;;;1.95;1.20;;;19.20;57.50;;;;;;5053686;28;20044;-63
2022/12/23 03:54:54;;;;;;;2.20;1.33;;;19.20;57.50;;;;;;5071094;28;20053;-62
2022/12/23 03:57:21;;;;;;;2.42;1.10;;;19.20;57.60;;;;;;5072130;28;20045;-63
2022/12/23 03:59:49;;;;;;;2.08;1.10;;;19.20;57.50;;;;;;5070030;28;20519;-63
2022/12/23 04:02:18;;;;;;;1.63;1.23;;;19.30;57.60;;;;;;5071006;28;20048;-63
2022/12/23 04:04:51;;;;;;;1.75;1.20;;;19.30;57.60;;;;;;5070963;28;20044;-63
2022/12/23 04:07:26;;;;;;;2.58;1.52;;;19.30;57.60;;;;;;5069921;28;20093;-62
2022/12/23 04:09:52;;;;;;;1.55;1.05;;;19.30;57.50;;;;;;5071116;28;20049;-63
2022/12/23 04:12:17;;;;;;;2.17;1.30;;;19.30;57.50;;;;;;5069594;28;20071;-63
2022/12/23 04:14:45;;;;;;;2.28;1.30;;;19.30;57.60;;;;;;5070767;28;20057;-63
2022/12/23 04:17:11;;;;;;;2.08;1.10;;;19.40;57.60;;;;;;5071752;28;20488;-63
2022/12/23 04:19:36;;;;;;;1.60;1.20;;;19.40;57.50;;;;;;5069947;28;20051;-63
2022/12/23 04:22:02;;;;;;;1.85;1.15;;;19.40;57.50;;;;;;5070391;28;20037;-62
2022/12/23 04:24:27;;;;;;;1.95;1.20;;;19.40;57.50;;;;;;5070799;28;20444;-62
2022/12/23 04:26:53;;;;;;;1.67;1.23;;;19.40;57.50;;;;;;5071728;28;20470;-63
2022/12/23 04:29:18;;;;;;;2.17;1.10;;;19.40;57.50;;;;;;5071705;28;20036;-63
2022/12/23 04:31:44;;;;;;;2.55;1.25;;;19.40;57.50;;;;;;5071941;28;20107;-63
2022/12/23 04:34:10;;;;;;;1.30;0.93;;;19.40;57.50;;;;;;5069914;28;20113;-63
2022/12/23 04:36:35;;;;;;;2.08;1.17;;;19.40;57.50;;;;;;5070524;28;20036;-63
2022/12/23 04:39:01;;;;;;;1.50;1.13;;;19.50;57.50;;;;;;5070618;28;20044;-63
2022/12/23 04:41:26;;;;;;;2.13;1.10;;;19.50;57.50;;;;;;5070857;28;20484;-63
2022/12/23 04:43:52;;;;;;;2.03;1.10;;;19.50;57.50;;;;;;5071339;28;20380;-63
2022/12/23 04:46:17;;;;;;;1.98;1.05;;;19.50;57.40;;;;;;5071566;28;20044;-63
2022/12/23 04:48:43;;;;;;;2.50;1.23;;;19.50;57.40;;;;;;5074299;28;20115;-63
2022/12/23 04:51:08;;;;;;;2.10;1.30;;;19.50;57.50;;;;;;5075305;28;20044;-62
2022/12/23 04:53:37;;;;;;;1.55;0.90;;;19.60;57.50;;;;;;5074311;28;20047;-63
2022/12/23 04:56:03;;;;;;;1.38;1.00;;;19.60;57.50;;;;;;5074792;28;20044;-63
2022/12/23 04:58:29;;;;;;;1.70;1.10;;;19.60;57.50;;;;;;5072144;28;20052;-63
2022/12/23 05:01:05;;;;;;;2.13;1.17;;;19.60;57.40;;;;;;5064628;28;20037;-63
2022/12/23 05:03:30;;;;;;;2.88;0.93;;;19.60;57.40;;;;;;5050095;28;20076;-63
2022/12/23 05:05:56;;;;;;;1.67;1.20;;;19.70;57.40;;;;;;5054708;28;20069;-63
2022/12/23 05:08:21;;;;;;;1.08;0.80;;;19.70;58.10;;;;;;5054620;28;20072;-63
2022/12/23 05:10:47;;;;;;;2.15;1.35;;;19.70;57.40;;;;;;5054791;28;20124;-63
2022/12/23 05:13:13;;;;;;;1.50;1.10;;;19.70;57.40;;;;;;5054771;28;20110;-63
2022/12/23 05:15:38;;;;;;;2.25;0.98;;;19.70;57.40;;;;;;5054491;28;20045;-63
2022/12/23 05:18:04;;;;;;;2.50;0.85;;;19.70;57.40;;;;;;5053357;28;20091;-63
2022/12/23 05:20:29;;;;;;;1.83;1.00;;;19.70;57.40;;;;;;5054646;28;20094;-63
2022/12/23 05:22:55;;;;;;;1.25;0.95;;;19.70;57.40;;;;;;5054635;28;20396;-63
2022/12/23 05:25:20;;;;;;;1.67;0.82;;;19.70;57.40;;;;;;5054585;28;20045;-63
2022/12/23 05:27:46;;;;;;;1.58;1.10;;;19.70;57.40;;;;;;5053278;28;20037;-63
2022/12/23 05:30:11;;;;;;;2.00;0.90;;;19.70;57.40;;;;;;5053643;28;20127;-63
2022/12/23 05:32:38;;;;;;;1.45;0.98;;;19.80;57.40;;;;;;5055064;28;20037;-63
2022/12/23 05:35:04;;;;;;;1.33;0.90;;;19.70;57.40;;;;;;5054270;28;20423;-63
2022/12/23 05:37:30;;;;;;;1.02;0.75;;;19.80;57.40;;;;;;5053938;28;20057;-63
2022/12/23 05:39:55;;;;;;;1.50;0.93;;;19.80;57.50;;;;;;5054782;28;20089;-63
2022/12/23 05:42:21;;;;;;;1.75;0.95;;;19.80;57.40;;;;;;5054205;28;20088;-63
2022/12/23 05:44:46;;;;;;;1.33;0.98;;;19.80;57.40;;;;;;5053970;28;20033;-63
2022/12/23 05:47:12;;;;;;;1.30;1.00;;;19.80;57.40;;;;;;5054062;28;20676;-63
2022/12/23 05:49:38;;;;;;;1.67;0.80;;;19.80;57.40;;;;;;5054544;28;20037;-63
2022/12/23 05:52:03;;;;;;;1.15;0.80;;;19.80;57.40;;;;;;5053681;28;20049;-63
2022/12/23 05:54:29;;;;;;;1.17;1.02;;;19.80;57.40;;;;;;5054251;28;20037;-63
2022/12/23 05:56:54;;;;;;;2.17;1.00;;;19.80;57.40;;;;;;5054390;28;20506;-63
2022/12/23 05:59:20;;;;;;;1.98;0.88;;;19.90;57.40;;;;;;5053045;28;20037;-63
2022/12/23 06:01:45;;;;;;;1.65;1.05;;;19.90;57.40;;;;;;5054267;28;20562;-64
2022/12/23 06:04:11;;;;;;;1.15;0.80;;;19.90;57.40;;;;;;5054047;28;20049;-64
2022/12/23 06:06:36;;;;;;;1.50;0.80;;;19.90;57.40;;;;;;5053463;28;20033;-64
2022/12/23 06:09:02;;;;;;;1.23;1.00;;;19.90;57.40;;;;;;5049278;28;20037;-64
2022/12/23 06:11:27;;;;;;;1.48;0.90;;;19.90;57.40;;;;;;5053950;28;20045;-63
2022/12/23 06:13:53;;;;;;;1.35;0.88;;;19.90;57.40;;;;;;5051635;28;20049;-63
2022/12/23 06:16:19;;;;;;;2.53;1.15;;;19.90;57.40;;;;;;5053848;28;20052;-63
2022/12/23 06:18:44;;;;;;;1.35;0.90;;;19.90;57.40;;;;;;5053682;28;20045;-63
2022/12/23 06:21:10;;;;;;;1.60;0.90;;;19.90;57.40;;;;;;5053409;28;20045;-63
2022/12/23 06:23:35;;;;;;;1.20;0.90;;;19.90;57.30;;;;;;5054006;28;20094;-63
2022/12/23 06:26:01;;;;;;;1.58;1.00;;;19.90;57.30;;;;;;5053098;28;20407;-63
2022/12/23 06:28:28;;;;;;;1.13;0.82;;;19.90;57.30;;;;;;5052201;28;20226;-63
2022/12/23 06:30:54;;;;;;;1.63;1.00;;;19.90;57.30;;;;;;5051856;28;20052;-64
2022/12/23 06:33:20;;;;;;;1.70;1.20;;;20.00;57.40;;;;;;5052538;28;20468;-63
2022/12/23 06:35:45;;;;;;;1.48;0.90;;;19.90;57.30;;;;;;5053359;28;20124;-63
2022/12/23 06:38:11;;;;;;;2.00;1.08;;;20.00;57.30;;;;;;5053296;28;20037;-64
2022/12/23 06:40:36;;;;;;;1.48;1.00;;;19.90;57.30;;;;;;5052805;28;20178;-63
2022/12/23 06:43:02;;;;;;;1.10;0.70;;;19.90;57.20;;;;;;5053480;28;20090;-63
2022/12/23 06:45:27;;;;;;;1.10;0.90;;;20.00;57.30;;;;;;5052821;28;20044;-64
2022/12/23 06:47:53;;;;;;;1.55;0.90;;;19.90;57.90;;;;;;5052538;28;20048;-64
2022/12/23 06:50:19;;;;;;;1.52;1.00;;;20.00;57.30;;;;;;5052656;28;20041;-64
2022/12/23 06:52:44;;;;;;;1.00;0.80;;;20.00;57.30;;;;;;5052958;28;20097;-63
2022/12/23 06:55:10;;;;;;;1.38;1.02;;;20.00;57.30;;;;;;5052103;28;20044;-63
2022/12/23 06:57:36;;;;;;;1.25;0.73;;;20.00;57.30;;;;;;5053000;28;20394;-63
2022/12/23 07:00:05;;;;;;;1.85;1.00;;;20.00;57.30;;;;;;5053100;28;20044;-64
2022/12/23 07:02:31;;;;;;;1.20;0.80;;;20.00;57.30;;;;;;5065394;28;20123;-63
2022/12/23 07:04:56;;;;;;;1.77;1.00;;;20.00;57.20;;;;;;5072958;28;20124;-64
2022/12/23 07:07:22;;;;;;;2.28;0.88;;;20.00;57.20;;;;;;5072704;28;20067;-63
2022/12/23 07:09:48;;;;;;;1.63;0.80;;;20.00;57.20;;;;;;5071542;28;20051;-64
2022/12/23 07:12:13;;;;;;;2.38;1.02;;;20.10;57.30;;;;;;5072434;28;20055;-63
2022/12/23 07:14:39;;;;;;;2.47;1.30;;;20.00;57.20;;;;;;5072362;28;20062;-63
2022/12/23 07:17:04;;;;;;;2.90;1.20;;;20.00;57.20;;;;;;5071994;28;20036;-63
2022/12/23 07:19:30;;;;;;;3.83;1.13;;;20.00;57.20;;;;;;5072029;28;20543;-63
2022/12/23 07:21:55;;;;;;;2.13;1.10;;;20.10;57.40;;;;;;5072291;28;20071;-63
2022/12/23 07:24:21;;;;;;;2.13;1.33;;;20.00;57.30;;;;;;5071547;28;20041;-63
2022/12/23 07:26:46;;;;;;;1.90;1.23;;;20.00;57.30;;;;;;5069299;28;20432;-63
2022/12/23 07:29:12;;;;;;;2.53;1.30;;;20.00;57.30;;;;;;5071466;28;20048;-63
2022/12/23 07:31:37;;;;;;;3.40;1.20;;;20.00;57.40;;;;;;5072509;28;20037;-62
2022/12/23 07:34:03;;;;;;;2.38;1.40;;;20.10;57.40;;;;;;5072709;28;20037;-63
2022/12/23 07:36:28;;;;;;;3.15;1.50;;;20.10;57.40;;;;;;5071505;28;20055;-63
2022/12/23 07:38:54;;;;;;;2.50;1.27;;;20.10;57.40;;;;;;5072397;28;20052;-63
2022/12/23 07:41:20;;;;;;;4.13;1.40;;;20.20;57.40;;;;;;5072359;28;20055;-63
2022/12/23 07:43:46;;;;;;;3.10;1.25;;;20.20;57.40;;;;;;5071441;28;20106;-63
2022/12/23 07:46:11;;;;;;;2.28;1.17;;;20.20;57.30;;;;;;5072126;28;20550;-63
2022/12/23 07:48:39;;;;;;;2.65;1.33;;;20.20;57.30;;;;;;5072409;28;20052;-62
2022/12/23 07:51:04;;;;;;;2.72;1.35;;;20.30;57.40;;;;;;5071990;28;20090;-63
2022/12/23 07:53:30;;;;;;;5.32;1.35;;;20.30;57.40;;;;;;5071949;28;20483;-63
2022/12/23 07:55:56;;;;;;;4.68;1.70;;;20.30;57.40;;;;;;5070303;28;20127;-67
2022/12/23 07:58:21;;;;;;;3.63;1.40;;;20.40;58.10;;;;;;5058320;28;20401;-62
2022/12/23 08:00:47;;;;;;;2.55;1.35;;;20.40;57.50;;;;;;5052161;28;20040;-64
2022/12/23 08:03:12;;;;;;;2.35;1.40;;;20.40;57.60;;;;;;5052086;28;20504;-62
2022/12/23 08:05:38;;;;;;;3.25;1.52;;;20.50;57.80;;;;;;5051548;28;20545;-64
2022/12/23 08:08:03;;;;;;;3.72;1.40;;;20.50;57.90;;;;;;5052338;28;20438;-62
2022/12/23 08:10:29;;;;;;;4.28;1.20;;;20.50;57.90;;;;;;5052108;28;20048;-62
2022/12/23 08:12:54;;;;;;;3.58;1.52;;;20.50;58.00;;;;;;5051226;28;20049;-62
2022/12/23 08:15:20;;;;;;;3.33;1.45;;;20.50;58.00;;;;;;5051776;28;20044;-62
2022/12/23 08:17:46;;;;;;;4.68;1.25;;;20.60;58.00;;;;;;5052216;28;20041;-63
2022/12/23 08:20:11;;;;;;;2.45;1.40;;;20.60;58.10;;;;;;5051015;28;20037;-63
2022/12/23 08:22:37;;;;;;;1.73;1.17;;;20.60;58.10;;;;;;5053873;28;20404;-64
2022/12/23 08:25:03;;;;;;;1.52;1.10;;;20.60;58.10;;;;;;5056070;28;20049;-65
2022/12/23 08:27:28;;;;;;;6.15;1.20;;;20.60;58.00;;;;;;5054731;28;20076;-63
2022/12/23 08:29:54;;;;;;;2.25;1.38;;;20.60;58.00;;;;;;5055990;28;20044;-62
2022/12/23 08:32:20;;;;;;;2.20;1.58;;;20.70;58.00;;;;;;5055564;28;20070;-63
2022/12/23 08:34:45;;;;;;;2.90;1.40;;;20.70;58.00;;;;;;5052058;28;20096;-63
2022/12/23 08:37:11;;;;;;;3.33;1.60;;;20.70;57.90;;;;;;5039556;28;20425;-64
2022/12/23 08:39:36;;;;;;;4.15;1.40;;;20.70;57.80;;;;;;5039616;28;20088;-61
2022/12/23 08:42:02;;;;;;;4.55;1.52;;;20.70;57.80;;;;;;5039467;28;20061;-63
2022/12/23 08:44:28;;;;;;;3.75;1.50;;;20.70;57.90;;;;;;5040350;28;20152;-64
2022/12/23 08:46:54;;;;;;;2.35;1.30;;;20.70;57.90;;;;;;5039715;28;20041;-64
2022/12/23 08:49:20;;;;;;;3.90;1.60;;;20.70;57.90;;;;;;5034782;28;20227;-65
2022/12/23 08:51:45;;;;;;;2.20;1.20;;;20.70;57.90;;;;;;5063814;28;20040;-65
2022/12/23 08:54:11;;;;;;;3.00;1.40;;;20.70;57.90;;;;;;5053757;28;20431;-65
2022/12/23 08:56:39;;;;;;;3.08;1.55;;;20.70;57.90;;;;;;5054826;28;20508;-65
2022/12/23 08:59:04;;;;;;;2.30;1.25;;;20.70;58.00;;;;;;5049261;28;20037;-64
2022/12/23 09:01:32;;;;;;;7.95;1.50;;;20.70;58.00;;;;;;5053989;28;20052;-66
2022/12/23 09:03:57;;;;;;;4.28;1.70;;;20.70;58.00;;;;;;5053640;28;20045;-67
2022/12/23 09:06:24;;;;;;;3.90;1.33;;;20.70;57.80;;;;;;5054693;28;20055;-65
2022/12/23 09:08:50;;;;;;;2.53;1.50;;;20.70;57.70;;;;;;5054541;28;20072;-65
2022/12/23 09:11:18;;;;;;;3.75;1.65;;;20.70;57.80;;;;;;5054878;28;20076;-65
2022/12/23 09:13:43;;;;;;;3.70;1.77;;;20.70;57.90;;;;;;5053465;28;20061;-65
2022/12/23 09:16:09;;;;;;;2.67;1.50;;;20.70;57.90;;;;;;5052621;28;20060;-65
2022/12/23 09:18:35;;;;;;;4.28;1.70;;;20.70;58.00;;;;;;5055008;28;20036;-66
2022/12/23 09:21:02;;;;;;;1.88;1.27;;;20.70;58.00;;;;;;5063167;28;20044;-66
2022/12/23 09:23:27;;;;;;;2.30;1.23;;;20.70;58.10;;;;;;5073995;28;20345;-66
2022/12/23 09:25:54;;;;;;;2.85;1.70;;;20.70;58.10;;;;;;5074429;28;20464;-65
2022/12/23 09:28:19;;;;;;;2.13;1.40;;;20.70;58.10;;;;;;5074934;28;20048;-64
2022/12/23 09:30:45;;;;;;;2.42;1.33;;;20.70;58.10;;;;;;5074581;28;20044;-63
2022/12/23 09:33:10;;;;;;;2.25;1.40;;;20.70;58.10;;;;;;5063435;28;20048;-62
2022/12/23 09:35:36;;;;;;;2.85;1.35;;;20.70;58.00;;;;;;5054201;28;20536;-63
2022/12/23 09:38:01;;;;;;;3.15;1.23;;;20.70;58.00;;;;;;5054171;28;20366;-63
2022/12/23 09:40:28;;;;;;;1.77;1.20;;;20.70;57.90;;;;;;5053981;28;20057;-63
2022/12/23 09:43:14;;;;;;;3.17;1.40;;;20.70;57.80;;;;;;5052731;28;20125;-65
2022/12/23 09:45:59;;;;;;;2.20;1.42;;;20.60;57.90;;;;;;5054677;28;20506;-62
2022/12/23 09:48:27;;;;;;;2.70;1.15;;;20.60;58.00;;;;;;5054871;28;20094;-64
2022/12/23 09:50:53;;;;;;;3.50;1.02;;;20.60;57.90;;;;;;5052726;28;20381;-65
2022/12/23 09:53:23;;;;;;;3.20;1.40;;;20.60;57.90;;;;;;5053119;28;20048;-64
2022/12/23 09:56:04;;;;;;;2.58;1.02;;;20.60;58.10;;;;;;5054768;28;20049;-63
2022/12/23 09:59:02;;;;;;;1.90;1.13;;;20.60;58.30;;;;;;5053693;28;20045;-64
2022/12/23 10:01:47;;;;;;;1.65;1.08;;;20.60;58.20;;;;;;5042015;28;20063;-63
2022/12/23 10:04:29;;;;;;;4.80;1.48;;;20.70;58.50;;;;;;5053390;28;20094;-65
2022/12/23 10:07:04;;;;;;;2.65;1.25;;;20.70;58.40;;;;;;5053099;28;20045;-64
2022/12/23 10:09:40;;;;;;;2.15;1.13;;;20.70;58.50;;;;;;5053925;28;20404;-64
2022/12/23 10:12:32;;;;;;;2.70;1.55;;;20.60;58.50;;;;;;5052721;28;20064;-63
2022/12/23 10:14:58;;;;;;;3.13;1.42;;;20.60;58.50;;;;;;5065184;28;20102;-66
2022/12/23 10:17:38;;;;;;;3.75;1.20;;;20.60;58.40;;;;;;5053049;28;20488;-67
2022/12/23 10:20:04;;;;;;;2.58;1.08;;;20.60;58.40;;;;;;5052421;28;20114;-66
2022/12/23 10:22:37;;;;;;;2.40;1.35;;;20.60;58.30;;;;;;5052748;28;20045;-65
2022/12/23 10:25:09;;;;;;;1.80;1.20;;;20.60;58.30;;;;;;5052371;28;20052;-66
2022/12/23 10:27:39;;;;;;;3.58;1.20;;;20.60;58.30;;;;;;5047836;28;20385;-66
2022/12/23 10:30:13;;;;;;;2.72;1.40;;;20.60;58.20;;;;;;5048834;28;20152;-66
2022/12/23 10:32:42;;;;;;;3.22;1.20;;;20.60;58.20;;;;;;5055943;28;20504;-67
2022/12/23 10:35:29;;;;;;;2.35;1.45;;;20.60;58.30;;;;;;5053912;28;20045;-66
2022/12/23 10:37:59;;;;;;;2.80;1.30;;;20.60;58.20;;;;;;5052433;28;20041;-67
2022/12/23 10:40:27;;;;;;;3.60;1.40;;;20.60;58.20;;;;;;5050742;28;20041;-67
2022/12/23 10:43:03;;;;;;;2.63;1.48;;;20.60;58.20;;;;;;5051783;28;20060;-67
2022/12/23 10:45:47;;;;;;;1.98;1.27;;;20.50;58.20;;;;;;5050783;28;20076;-67
2022/12/23 10:48:38;;;;;;;1.77;1.23;;;20.50;58.20;;;;;;5051187;28;20103;-67
2022/12/23 10:51:08;;;;;;;2.58;1.10;;;20.50;58.20;;;;;;5053412;28;20052;-67
2022/12/23 10:53:36;;;;;;;2.20;1.13;;;20.50;58.20;;;;;;5050934;28;20132;-68
2022/12/23 10:56:02;;;;;;;2.97;1.33;;;20.50;58.20;;;;;;5035311;28;20045;-66
2022/12/23 10:58:28;;;;;;;1.67;1.10;;;20.50;58.10;;;;;;5035386;28;20039;-67
2022/12/23 11:00:56;;;;;;;2.50;1.30;;;20.50;58.10;;;;;;5051273;28;20511;-69
2022/12/23 11:03:22;;;;;;;2.33;1.10;;;20.50;58.20;;;;;;5051826;28;20056;-68
2022/12/23 11:05:50;;;;;;;2.20;1.13;;;20.50;58.20;;;;;;5050777;28;20586;-68
2022/12/23 11:08:16;;;;;;;2.33;1.40;;;20.50;58.80;;;;;;5050638;28;20560;-68
2022/12/23 11:10:41;;;;;;;3.50;1.45;;;20.50;58.10;;;;;;5050825;28;20641;-68
2022/12/23 11:13:07;;;;;;;2.17;1.35;;;20.50;58.00;;;;;;5051928;28;20045;-68
2022/12/23 11:15:34;;;;;;;3.65;1.70;;;20.50;58.00;;;;;;5051128;28;20440;-67
2022/12/23 11:18:15;;;;;;;2.70;1.45;;;20.50;58.00;;;;;;5051968;28;20045;-66
2022/12/23 11:20:42;;;;;;;3.17;1.25;;;20.50;57.90;;;;;;5050393;28;20052;-66
2022/12/23 11:23:32;;;;;;;3.20;1.50;;;20.50;57.90;;;;;;5051414;28;20049;-66
2022/12/23 11:26:02;;;;;;;1.85;1.08;;;20.50;57.80;;;;;;5051682;28;20076;-65
2022/12/23 11:28:28;;;;;;;2.20;1.35;;;20.50;57.80;;;;;;5050358;28;20063;-65
2022/12/23 11:30:54;;;;;;;4.53;1.50;;;20.50;57.80;;;;;;5052094;28;20037;-65
2022/12/23 11:33:26;;;;;;;2.63;1.40;;;20.50;57.80;;;;;;5052279;28;20047;-65
2022/12/23 11:36:06;;;;;;;2.10;1.33;;;20.50;57.80;;;;;;5057006;28;20041;-65
2022/12/23 11:38:32;;;;;;;2.83;1.50;;;20.40;57.70;;;;;;5048802;28;20051;-66
2022/12/23 11:40:57;;;;;;;2.17;1.20;;;20.40;57.80;;;;;;5051261;28;20041;-65
2022/12/23 11:43:23;;;;;;;2.80;1.25;;;20.50;57.90;;;;;;5049737;28;20488;-64
2022/12/23 11:45:48;;;;;;;3.17;1.50;;;20.40;57.80;;;;;;5052563;28;20040;-70
2022/12/23 11:48:29;;;;;;;2.63;1.20;;;20.40;57.90;;;;;;5034191;28;20040;-67
2022/12/23 11:50:59;;;;;;;5.20;1.92;;;20.40;57.80;;;;;;5057190;28;20138;-67
2022/12/23 11:53:26;;;;;;;3.90;1.40;;;20.40;57.80;;;;;;5050898;28;20029;-67
2022/12/23 11:56:12;;;;;;;3.13;1.70;;;20.40;57.80;;;;;;5050895;28;20041;-65
2022/12/23 11:58:46;;;;;;;3.55;1.52;;;20.50;57.80;;;;;;5035008;28;20056;-67
2022/12/23 12:01:16;;;;;;;7.05;1.75;;;20.40;57.80;;;;;;5052398;28;20099;-68
2022/12/23 12:03:54;;;;;;;5.35;1.90;;;20.40;57.80;;;;;;5051561;28;20160;-67
2022/12/23 12:06:20;;;;;;;4.05;2.08;;;20.40;57.80;;;;;;5033930;28;20049;-68
2022/12/23 12:08:49;;;;;;;3.45;1.80;;;20.40;57.90;;;;;;5051545;28;20094;-67
2022/12/23 12:11:17;;;;;;;6.55;1.70;;;20.40;58.00;;;;;;5050127;28;20041;-67
2022/12/23 12:13:43;;;;;;;5.40;1.77;;;20.40;58.00;;;;;;5051056;28;20068;-67
2022/12/23 12:16:21;;;;;;;3.25;1.70;;;20.40;58.00;;;;;;5034221;28;20110;-67
2022/12/23 12:18:47;;;;;;;4.47;2.00;;;20.40;58.10;;;;;;5034237;28;20095;-66
2022/12/23 12:21:15;;;;;;;5.13;2.05;;;20.40;58.00;;;;;;5034477;28;20041;-66
2022/12/23 12:23:51;;;;;;;7.65;2.70;;;20.40;57.90;;;;;;5030067;28;20114;-66
2022/12/23 12:26:28;;;;;;;4.30;2.25;;;20.40;57.90;;;;;;5017650;28;20115;-66
2022/12/23 12:29:19;;;;;;;6.75;2.05;;;20.40;57.90;;;;;;5034732;28;20047;-65
2022/12/23 12:31:52;;;;;;;4.85;2.08;;;20.40;57.90;;;;;;5051706;28;20033;-66
2022/12/23 12:34:39;;;;;;;4.78;2.15;;;20.40;57.90;;;;;;5031367;28;20041;-64
2022/12/23 12:37:14;;;;;;;8.10;2.60;;;20.40;57.90;;;;;;5049852;28;20044;-64
2022/12/23 12:39:53;;;;;;;7.15;2.50;;;20.40;58.00;;;;;;5049965;28;20040;-64
2022/12/23 12:42:40;;;;;;;5.28;2.38;;;20.40;58.10;;;;;;5045600;28;20059;-64
2022/12/23 12:45:16;;;;;;;6.53;2.47;;;20.40;58.20;;;;;;5051020;28;20056;-64
2022/12/23 12:48:05;;;;;;;5.93;2.50;;;20.40;58.20;;;;;;5048421;28;20057;-64
2022/12/23 12:50:38;;;;;;;6.60;2.47;;;20.40;58.20;;;;;;5049132;28;20045;-63
2022/12/23 12:53:20;;;;;;;5.03;2.45;;;20.40;58.40;;;;;;5031093;28;20037;-62
2022/12/23 12:55:51;;;;;;;9.88;2.65;;;20.40;58.50;;;;;;5047350;28;20048;-63
2022/12/23 12:58:19;;;;;;;8.32;2.40;;;20.50;58.60;;;;;;5049257;28;20040;-64
2022/12/23 13:01:01;;;;;;;6.22;2.00;;;20.50;58.60;;;;;;5050183;28;20401;-64
2022/12/23 13:03:59;;;;;;;6.88;2.30;;;20.50;58.60;;;;;;5048146;28;20465;-65
2022/12/23 13:06:44;;;;;;;;;;;20.50;58.70;;;;;;5036305;28;20484;-65
2022/12/23 13:09:26;;;;;;;6.82;2.05;;;20.50;58.70;;;;;;5051669;28;19920;-65
2022/12/23 13:11:54;;;;;;;3.88;2.08;;;20.50;58.70;;;;;;5054718;28;20036;-65
2022/12/23 13:15:01;;;;;;;7.78;2.50;;;20.50;58.70;;;;;;5035598;28;20423;-64
2022/12/23 13:17:39;;;;;;;5.82;2.38;;;20.60;58.90;;;;;;5028671;28;20136;-65
2022/12/23 13:20:27;;;;;;;7.80;2.70;;;20.60;58.80;;;;;;5052283;28;20166;-64
2022/12/23 13:22:54;;;;;;;5.63;2.30;;;20.60;58.90;;;;;;5051933;28;20064;-64
2022/12/23 13:25:29;;;;;;;5.25;2.40;;;20.60;58.90;;;;;;5036389;28;20556;-64
2022/12/23 13:28:31;;;;;;;3.92;2.20;;;20.60;58.90;;;;;;5031329;28;20055;-64